Time;durP1;ratioP1;P1;durP2;ratioP2;P2;SDS_P1;SDS_P2;PMS_P1;PMS_P2;Temp;Humidity;BMP_temperature;BMP_pressure;BME280_temperature;BME280_humidity;BME280_pressure;Samples;Min_cycle;Max_cycle;Signal;HPM_P1;HPM_P2
2023/03/26 00:01:00;;;;;;;0.40;0.40;;;;;;;;;;7405135;19;20141;-89
2023/03/26 00:03:28;;;;;;;0.30;0.30;;;;;;;;;;7400317;19;20129;-87
2023/03/26 00:06:07;;;;;;;0.20;0.20;;;;;;;;;;7403546;19;20137;-88
2023/03/26 00:08:35;;;;;;;0.20;0.20;;;;;;;;;;7402659;19;20177;-88
2023/03/26 00:11:03;;;;;;;0.50;0.50;;;;;;;;;;7403820;19;20153;-87
2023/03/26 00:13:31;;;;;;;0.20;0.20;;;;;;;;;;7403184;19;20136;-88
2023/03/26 00:15:58;;;;;;;0.60;0.60;;;;;;;;;;7402735;19;20137;-89
2023/03/26 00:18:29;;;;;;;0.30;0.30;;;;;;;;;;7404416;19;20157;-88
2023/03/26 00:20:57;;;;;;;0.30;0.30;;;;;;;;;;7404022;19;20133;-87
2023/03/26 00:23:25;;;;;;;0.60;0.60;;;;;;;;;;7401883;19;20908;-89
2023/03/26 00:25:53;;;;;;;0.30;0.30;;;;;;;;;;7403369;19;20141;-87
2023/03/26 00:28:21;;;;;;;0.30;0.30;;;;;;;;;;7396073;19;20137;-89
2023/03/26 00:30:49;;;;;;;0.50;0.50;;;;;;;;;;7402245;19;20568;-90
2023/03/26 00:33:16;;;;;;;0.37;0.37;;;;;;;;;;7402698;19;20144;-89
2023/03/26 00:35:46;;;;;;;0.53;0.53;;;;;;;;;;7402177;19;20132;-87
2023/03/26 00:38:13;;;;;;;0.20;0.20;;;;;;;;;;7403555;19;20129;-86
2023/03/26 00:40:46;;;;;;;0.30;0.30;;;;;;;;;;7399397;19;20204;-90
2023/03/26 00:43:19;;;;;;;1.60;0.87;;;;;;;;;;7394604;19;20136;-89
2023/03/26 00:45:51;;;;;;;0.40;0.40;;;;;;;;;;7390940;19;20703;-91
2023/03/26 00:48:20;;;;;;;0.30;0.30;;;;;;;;;;7389786;19;20196;-89
2023/03/26 00:51:00;;;;;;;0.30;0.30;;;;;;;;;;7393472;19;20139;-91
2023/03/26 00:53:26;;;;;;;0.20;0.20;;;;;;;;;;7388740;19;20144;-90
2023/03/26 00:55:53;;;;;;;0.30;0.30;;;;;;;;;;7392828;19;20136;-89
2023/03/26 00:58:26;;;;;;;0.30;0.30;;;;;;;;;;7393347;19;20176;-90
2023/03/26 01:00:58;;;;;;;0.50;0.50;;;;;;;;;;7392864;19;20137;-91
2023/03/26 01:03:32;;;;;;;0.30;0.30;;;;;;;;;;7391005;19;20137;-90
2023/03/26 01:06:26;;;;;;;0.30;0.30;;;;;;;;;;7389219;19;20192;-90
2023/03/26 01:08:58;;;;;;;0.30;0.30;;;;;;;;;;7389798;19;20164;-90
2023/03/26 01:11:29;;;;;;;0.87;0.87;;;;;;;;;;7390527;19;20220;-89
2023/03/26 01:13:58;;;;;;;0.60;0.60;;;;;;;;;;7391681;19;20133;-90
2023/03/26 01:16:36;;;;;;;0.60;0.60;;;;;;;;;;7390990;19;20509;-91
2023/03/26 01:19:15;;;;;;;0.30;0.30;;;;;;;;;;7392033;19;20533;-91
2023/03/26 01:21:41;;;;;;;0.30;0.30;;;;;;;;;;7392187;19;20578;-90
2023/03/26 01:24:09;;;;;;;0.30;0.30;;;;;;;;;;7391409;19;20161;-90
2023/03/26 01:26:38;;;;;;;0.30;0.30;;;;;;;;;;7387861;19;20143;-91
2023/03/26 01:29:11;;;;;;;0.30;0.30;;;;;;;;;;7390223;19;20496;-91
2023/03/26 01:32:08;;;;;;;0.33;0.33;;;;;;;;;;7393665;19;20155;-90
2023/03/26 01:34:48;;;;;;;2.77;0.63;;;;;;;;;;7389909;19;20160;-91
2023/03/26 01:37:26;;;;;;;0.33;0.33;;;;;;;;;;7391184;19;20128;-90
2023/03/26 01:39:57;;;;;;;0.30;0.30;;;;;;;;;;7392706;19;20193;-89
2023/03/26 01:42:29;;;;;;;0.30;0.30;;;;;;;;;;7398740;19;20177;-88
2023/03/26 01:45:00;;;;;;;0.30;0.30;;;;;;;;;;7397216;19;20141;-89
2023/03/26 01:47:26;;;;;;;0.30;0.30;;;;;;;;;;7398399;19;20137;-88
2023/03/26 01:49:53;;;;;;;0.83;0.80;;;;;;;;;;7397611;19;20155;-88
2023/03/26 01:55:01;;;;;;;1.93;1.30;;;;;;;;;;7401740;19;20626;-88
2023/03/26 01:57:42;;;;;;;0.60;0.60;;;;;;;;;;7389511;19;20169;-91
2023/03/26 02:00:17;;;;;;;0.40;0.40;;;;;;;;;;7390643;19;20164;-90
2023/03/26 02:03:21;;;;;;;0.30;0.30;;;;;;;;;;7391195;19;20140;-91
2023/03/26 02:06:14;;;;;;;0.33;0.33;;;;;;;;;;7393766;19;20128;-90
2023/03/26 02:08:45;;;;;;;0.30;0.30;;;;;;;;;;7393312;19;20567;-91
2023/03/26 02:11:13;;;;;;;0.20;0.20;;;;;;;;;;7393571;19;20141;-91
2023/03/26 02:13:44;;;;;;;1.20;0.93;;;;;;;;;;7394826;19;20554;-90
2023/03/26 02:16:15;;;;;;;0.30;0.30;;;;;;;;;;7393857;19;20157;-90
2023/03/26 02:18:43;;;;;;;0.53;0.53;;;;;;;;;;7391698;19;20156;-91
2023/03/26 02:21:14;;;;;;;1.03;0.93;;;;;;;;;;7394086;19;20137;-90
2023/03/26 02:23:45;;;;;;;0.27;0.27;;;;;;;;;;7394763;19;20129;-91
2023/03/26 02:26:14;;;;;;;0.30;0.30;;;;;;;;;;7395699;19;20601;-89
2023/03/26 02:28:41;;;;;;;0.30;0.30;;;;;;;;;;7394932;19;20149;-91
2023/03/26 02:31:09;;;;;;;0.30;0.30;;;;;;;;;;7392130;19;20627;-91
2023/03/26 02:33:39;;;;;;;0.30;0.30;;;;;;;;;;7392023;19;20133;-91
2023/03/26 02:36:07;;;;;;;0.30;0.30;;;;;;;;;;7391579;19;20141;-90
2023/03/26 02:38:34;;;;;;;0.30;0.30;;;;;;;;;;7390788;19;20163;-91
2023/03/26 02:41:01;;;;;;;0.40;0.40;;;;;;;;;;7385636;19;20125;-91
2023/03/26 02:43:28;;;;;;;0.20;0.20;;;;;;;;;;7388183;19;20133;-91
2023/03/26 02:45:55;;;;;;;0.40;0.40;;;;;;;;;;7386300;19;20137;-91
2023/03/26 02:48:22;;;;;;;0.30;0.30;;;;;;;;;;7386740;19;20176;-90
2023/03/26 02:50:53;;;;;;;0.30;0.30;;;;;;;;;;7385655;19;20141;-90
2023/03/26 02:53:20;;;;;;;0.30;0.30;;;;;;;;;;7396186;19;20132;-90
2023/03/26 02:55:47;;;;;;;0.40;0.40;;;;;;;;;;7398800;19;20157;-91
2023/03/26 02:58:16;;;;;;;2.47;0.50;;;;;;;;;;7397064;19;20141;-90
2023/03/26 03:00:45;;;;;;;0.30;0.30;;;;;;;;;;7394363;19;20141;-92
2023/03/26 03:03:12;;;;;;;0.30;0.30;;;;;;;;;;7394663;19;20144;-90
2023/03/26 03:05:41;;;;;;;0.30;0.30;;;;;;;;;;7396990;19;20156;-90
2023/03/26 03:08:08;;;;;;;0.40;0.40;;;;;;;;;;7396799;19;20499;-91
2023/03/26 03:10:36;;;;;;;0.40;0.40;;;;;;;;;;7399659;19;20586;-91
2023/03/26 03:13:06;;;;;;;1.40;1.30;;;;;;;;;;7400742;19;20606;-89
2023/03/26 03:15:33;;;;;;;0.80;0.80;;;;;;;;;;7398343;19;20578;-90
2023/03/26 03:18:01;;;;;;;0.30;0.30;;;;;;;;;;7397858;19;20168;-90
2023/03/26 03:20:29;;;;;;;0.40;0.40;;;;;;;;;;7398519;19;20235;-90
2023/03/26 03:22:55;;;;;;;0.43;0.43;;;;;;;;;;7409126;19;20129;-90
2023/03/26 03:25:24;;;;;;;0.50;0.50;;;;;;;;;;7422818;19;20129;-90
2023/03/26 03:27:52;;;;;;;0.63;0.63;;;;;;;;;;7425856;19;20129;-89
2023/03/26 03:30:19;;;;;;;0.50;0.50;;;;;;;;;;7419319;19;20228;-88
2023/03/26 03:32:46;;;;;;;0.30;0.30;;;;;;;;;;7401068;19;20169;-90
2023/03/26 03:35:13;;;;;;;0.30;0.30;;;;;;;;;;7399998;19;20137;-90
2023/03/26 03:37:40;;;;;;;0.30;0.30;;;;;;;;;;7399688;19;20155;-90
2023/03/26 03:40:11;;;;;;;0.40;0.40;;;;;;;;;;7395532;19;20168;-89
2023/03/26 03:42:38;;;;;;;0.23;0.23;;;;;;;;;;7421633;19;20154;-90
2023/03/26 03:45:05;;;;;;;0.30;0.30;;;;;;;;;;7422461;19;20137;-90
2023/03/26 03:47:32;;;;;;;0.53;0.53;;;;;;;;;;7424254;19;20133;-89
2023/03/26 03:49:59;;;;;;;0.23;0.23;;;;;;;;;;7426270;19;20448;-90
2023/03/26 03:52:26;;;;;;;0.33;0.33;;;;;;;;;;7412834;19;20155;-90
2023/03/26 03:54:56;;;;;;;0.30;0.30;;;;;;;;;;7397312;19;20149;-90
2023/03/26 03:57:23;;;;;;;0.30;0.30;;;;;;;;;;7394644;19;20129;-90
2023/03/26 03:59:49;;;;;;;0.20;0.20;;;;;;;;;;7393762;19;20149;-90
2023/03/26 04:02:24;;;;;;;0.20;0.20;;;;;;;;;;7394609;19;20503;-90
2023/03/26 04:04:52;;;;;;;0.30;0.30;;;;;;;;;;7396858;19;20133;-90
2023/03/26 04:07:19;;;;;;;0.20;0.20;;;;;;;;;;7389050;19;20480;-90
2023/03/26 04:09:45;;;;;;;0.30;0.30;;;;;;;;;;7395455;19;20178;-90
2023/03/26 04:12:12;;;;;;;0.30;0.30;;;;;;;;;;7396147;19;20129;-90
2023/03/26 04:14:39;;;;;;;0.20;0.20;;;;;;;;;;7397752;19;20634;-90
2023/03/26 04:17:05;;;;;;;0.27;0.27;;;;;;;;;;7397050;19;20140;-90
2023/03/26 04:19:32;;;;;;;0.30;0.30;;;;;;;;;;7396709;19;20195;-91
2023/03/26 04:22:01;;;;;;;0.30;0.30;;;;;;;;;;7423377;19;20140;-90
2023/03/26 04:24:28;;;;;;;0.30;0.30;;;;;;;;;;7430622;19;20141;-88
2023/03/26 04:26:57;;;;;;;0.30;0.30;;;;;;;;;;7431246;19;20130;-89
2023/03/26 04:29:26;;;;;;;0.30;0.30;;;;;;;;;;7424340;19;20145;-89
2023/03/26 04:31:57;;;;;;;0.30;0.30;;;;;;;;;;7428756;19;20154;-89
2023/03/26 04:34:24;;;;;;;0.40;0.40;;;;;;;;;;7430824;19;20153;-89
2023/03/26 04:36:53;;;;;;;0.30;0.30;;;;;;;;;;7423838;19;20145;-88
2023/03/26 04:39:28;;;;;;;0.30;0.30;;;;;;;;;;7424244;19;20168;-89
2023/03/26 04:41:55;;;;;;;0.30;0.30;;;;;;;;;;7419713;19;20132;-89
2023/03/26 04:44:22;;;;;;;0.33;0.33;;;;;;;;;;7406256;19;20549;-91
2023/03/26 04:46:51;;;;;;;0.30;0.30;;;;;;;;;;7401938;19;20165;-90
2023/03/26 04:49:18;;;;;;;0.47;0.47;;;;;;;;;;7414710;19;20193;-88
2023/03/26 04:51:45;;;;;;;0.40;0.40;;;;;;;;;;7418376;19;20149;-91
2023/03/26 04:54:13;;;;;;;0.23;0.23;;;;;;;;;;7412574;19;20165;-91
2023/03/26 04:56:46;;;;;;;0.30;0.30;;;;;;;;;;7401533;19;20137;-90
2023/03/26 04:59:17;;;;;;;0.30;0.30;;;;;;;;;;7391762;19;20180;-91
2023/03/26 05:01:44;;;;;;;0.60;0.60;;;;;;;;;;7393278;19;20144;-91
2023/03/26 05:04:12;;;;;;;0.30;0.30;;;;;;;;;;7389812;19;20200;-88
2023/03/26 05:06:40;;;;;;;0.30;0.30;;;;;;;;;;7393331;19;20152;-90
2023/03/26 05:09:09;;;;;;;0.23;0.23;;;;;;;;;;7415027;19;20181;-90
2023/03/26 05:11:36;;;;;;;0.20;0.20;;;;;;;;;;7426326;19;20553;-90
2023/03/26 05:14:02;;;;;;;0.30;0.30;;;;;;;;;;7423728;19;20132;-90
2023/03/26 05:16:30;;;;;;;0.30;0.30;;;;;;;;;;7421847;19;20153;-90
2023/03/26 05:18:57;;;;;;;0.30;0.30;;;;;;;;;;7419014;19;20178;-89
2023/03/26 05:21:23;;;;;;;0.50;0.50;;;;;;;;;;7388450;19;20145;-90
2023/03/26 05:23:50;;;;;;;0.37;0.37;;;;;;;;;;7389859;19;20136;-90
2023/03/26 05:26:17;;;;;;;0.40;0.40;;;;;;;;;;7385409;19;20144;-91
2023/03/26 05:28:44;;;;;;;0.20;0.20;;;;;;;;;;7386915;19;20159;-89
2023/03/26 05:31:10;;;;;;;0.30;0.30;;;;;;;;;;7387592;19;20133;-90
2023/03/26 05:33:37;;;;;;;0.20;0.20;;;;;;;;;;7388665;19;20158;-90
2023/03/26 05:36:08;;;;;;;0.20;0.20;;;;;;;;;;7391000;19;20598;-90
2023/03/26 05:38:35;;;;;;;0.50;0.50;;;;;;;;;;7382816;19;20176;-91
2023/03/26 05:41:05;;;;;;;2.33;1.33;;;;;;;;;;7392076;19;20153;-91
2023/03/26 05:43:32;;;;;;;0.30;0.30;;;;;;;;;;7388400;19;20178;-91
2023/03/26 05:45:59;;;;;;;0.60;0.60;;;;;;;;;;7390093;19;20136;-92
2023/03/26 05:48:26;;;;;;;0.30;0.30;;;;;;;;;;7391385;19;20121;-91
2023/03/26 05:50:55;;;;;;;0.30;0.30;;;;;;;;;;7390319;19;20137;-90
2023/03/26 05:53:23;;;;;;;3.53;0.50;;;;;;;;;;7388986;19;20137;-91
2023/03/26 05:55:54;;;;;;;0.30;0.30;;;;;;;;;;7390005;19;20137;-91
2023/03/26 05:58:21;;;;;;;0.30;0.30;;;;;;;;;;7390894;19;20177;-91
2023/03/26 06:00:47;;;;;;;0.30;0.30;;;;;;;;;;7387247;19;20129;-91
2023/03/26 06:03:15;;;;;;;0.30;0.30;;;;;;;;;;7390140;19;20671;-90
2023/03/26 06:05:42;;;;;;;0.30;0.30;;;;;;;;;;7392335;19;20477;-90
2023/03/26 06:08:08;;;;;;;0.30;0.30;;;;;;;;;;7388686;19;20157;-91
2023/03/26 06:10:38;;;;;;;0.50;0.50;;;;;;;;;;7388527;19;20141;-90
2023/03/26 06:13:05;;;;;;;0.30;0.30;;;;;;;;;;7390701;19;20133;-90
2023/03/26 06:15:31;;;;;;;0.30;0.30;;;;;;;;;;7392935;19;20141;-90
2023/03/26 06:17:58;;;;;;;0.30;0.30;;;;;;;;;;7384559;19;20137;-90
2023/03/26 06:20:25;;;;;;;0.30;0.30;;;;;;;;;;7387233;19;20169;-90
2023/03/26 06:22:51;;;;;;;0.30;0.30;;;;;;;;;;7391880;19;20585;-90
2023/03/26 06:25:18;;;;;;;0.30;0.30;;;;;;;;;;7388005;19;20699;-89
2023/03/26 06:27:45;;;;;;;0.20;0.20;;;;;;;;;;7392803;19;20149;-90
2023/03/26 06:30:12;;;;;;;0.40;0.40;;;;;;;;;;7397323;19;20536;-90
2023/03/26 06:32:38;;;;;;;0.30;0.30;;;;;;;;;;7399047;19;20149;-89
2023/03/26 06:35:05;;;;;;;0.30;0.30;;;;;;;;;;7394422;19;20245;-91
2023/03/26 06:37:32;;;;;;;0.30;0.30;;;;;;;;;;7394249;19;20481;-91
2023/03/26 06:39:59;;;;;;;0.30;0.30;;;;;;;;;;7394353;19;20179;-90
2023/03/26 06:42:25;;;;;;;0.30;0.30;;;;;;;;;;7398035;19;20137;-91
2023/03/26 06:45:12;;;;;;;0.30;0.30;;;;;;;;;;7399239;19;20149;-91
2023/03/26 06:47:38;;;;;;;1.70;0.97;;;;;;;;;;7393754;19;20133;-89
2023/03/26 06:50:06;;;;;;;0.30;0.30;;;;;;;;;;7392630;19;21168;-90
2023/03/26 06:52:33;;;;;;;0.47;0.47;;;;;;;;;;7393630;19;20180;-89
2023/03/26 06:54:59;;;;;;;0.30;0.30;;;;;;;;;;7398136;19;20141;-90
2023/03/26 06:57:26;;;;;;;0.30;0.30;;;;;;;;;;7395778;19;20133;-91
2023/03/26 06:59:52;;;;;;;0.37;0.37;;;;;;;;;;7395655;19;20173;-90
2023/03/26 07:02:19;;;;;;;0.30;0.30;;;;;;;;;;7392328;19;20149;-91
2023/03/26 07:04:47;;;;;;;0.20;0.20;;;;;;;;;;7398077;19;20125;-90
2023/03/26 07:07:13;;;;;;;0.30;0.30;;;;;;;;;;7389676;19;20149;-90
2023/03/26 07:09:40;;;;;;;0.50;0.50;;;;;;;;;;7393484;19;20153;-90
2023/03/26 07:12:06;;;;;;;1.60;0.70;;;;;;;;;;7394150;19;20170;-90
2023/03/26 07:14:33;;;;;;;0.43;0.43;;;;;;;;;;7394834;19;20149;-92
2023/03/26 07:17:00;;;;;;;0.30;0.30;;;;;;;;;;7391777;19;20137;-90
2023/03/26 07:19:27;;;;;;;0.60;0.60;;;;;;;;;;7389161;19;20169;-90
2023/03/26 07:21:54;;;;;;;0.30;0.30;;;;;;;;;;7388575;19;20172;-90
2023/03/26 07:24:21;;;;;;;0.40;0.40;;;;;;;;;;7387797;19;20137;-90
2023/03/26 07:27:06;;;;;;;0.37;0.37;;;;;;;;;;7386354;19;20631;-89
2023/03/26 07:29:37;;;;;;;0.30;0.30;;;;;;;;;;7386854;19;20156;-89
2023/03/26 07:32:11;;;;;;;0.57;0.57;;;;;;;;;;7393937;19;20141;-90
2023/03/26 07:34:47;;;;;;;0.30;0.30;;;;;;;;;;7395835;19;20142;-92
2023/03/26 07:37:32;;;;;;;0.30;0.30;;;;;;;;;;7392332;19;20161;-91
2023/03/26 07:40:19;;;;;;;0.30;0.30;;;;;;;;;;7393159;19;20148;-92
2023/03/26 07:43:24;;;;;;;0.30;0.30;;;;;;;;;;7395779;19;20145;-92
2023/03/26 07:45:53;;;;;;;0.30;0.30;;;;;;;;;;7397225;19;20509;-93
2023/03/26 07:48:28;;;;;;;0.57;0.57;;;;;;;;;;7400929;19;20137;-93
2023/03/26 07:50:55;;;;;;;0.40;0.40;;;;;;;;;;7398303;19;20141;-91
2023/03/26 07:53:23;;;;;;;0.30;0.30;;;;;;;;;;7400800;19;20137;-93
2023/03/26 07:55:59;;;;;;;0.30;0.30;;;;;;;;;;7400640;19;20149;-92
2023/03/26 07:58:55;;;;;;;0.30;0.30;;;;;;;;;;7396499;19;20137;-93
2023/03/26 08:01:27;;;;;;;0.40;0.40;;;;;;;;;;7395273;19;20488;-90
2023/03/26 08:04:07;;;;;;;0.40;0.40;;;;;;;;;;7390755;19;20202;-91
2023/03/26 08:07:17;;;;;;;0.30;0.30;;;;;;;;;;7390755;19;20137;-91
2023/03/26 08:10:05;;;;;;;0.20;0.20;;;;;;;;;;7378313;19;20180;-91
2023/03/26 08:12:37;;;;;;;0.30;0.30;;;;;;;;;;7392126;19;20141;-91
2023/03/26 08:15:29;;;;;;;0.30;0.30;;;;;;;;;;7393161;19;20157;-90
2023/03/26 08:18:02;;;;;;;0.30;0.30;;;;;;;;;;7386545;19;20495;-91
2023/03/26 08:20:33;;;;;;;0.30;0.30;;;;;;;;;;7391351;19;20162;-91
2023/03/26 08:23:38;;;;;;;0.30;0.30;;;;;;;;;;7394418;19;20164;-91
2023/03/26 08:26:38;;;;;;;0.33;0.33;;;;;;;;;;7394424;19;20168;-91
2023/03/26 08:29:21;;;;;;;0.30;0.30;;;;;;;;;;7389595;19;20201;-90
2023/03/26 08:31:48;;;;;;;0.33;0.33;;;;;;;;;;7389091;19;20140;-92
2023/03/26 08:34:15;;;;;;;0.30;0.30;;;;;;;;;;7386935;19;20489;-91
2023/03/26 08:36:41;;;;;;;0.43;0.43;;;;;;;;;;7391059;19;20466;-91
2023/03/26 08:39:08;;;;;;;0.30;0.30;;;;;;;;;;7391902;19;20196;-91
2023/03/26 08:41:43;;;;;;;0.30;0.30;;;;;;;;;;7387063;19;20133;-91
2023/03/26 08:44:39;;;;;;;0.50;0.50;;;;;;;;;;7391316;19;20171;-90
2023/03/26 08:47:30;;;;;;;0.40;0.40;;;;;;;;;;7387482;19;20166;-91
2023/03/26 08:50:21;;;;;;;0.50;0.50;;;;;;;;;;7382075;19;20152;-91
2023/03/26 08:53:20;;;;;;;0.30;0.30;;;;;;;;;;7388485;19;20141;-92
2023/03/26 08:56:18;;;;;;;0.40;0.40;;;;;;;;;;7399775;19;20148;-91
2023/03/26 08:58:50;;;;;;;0.30;0.30;;;;;;;;;;7407929;19;20145;-91
2023/03/26 09:01:43;;;;;;;0.47;0.47;;;;;;;;;;7407526;19;20173;-91
2023/03/26 09:04:18;;;;;;;0.60;0.60;;;;;;;;;;7402830;19;20139;-92
2023/03/26 09:07:19;;;;;;;0.30;0.30;;;;;;;;;;7391832;19;20148;-92
2023/03/26 09:10:22;;;;;;;0.30;0.30;;;;;;;;;;7394402;19;20168;-93
2023/03/26 09:13:12;;;;;;;0.40;0.40;;;;;;;;;;7392438;19;20133;-92
2023/03/26 09:15:50;;;;;;;0.50;0.50;;;;;;;;;;7397330;19;20149;-92
2023/03/26 09:18:57;;;;;;;0.33;0.33;;;;;;;;;;7393958;19;20196;-91
2023/03/26 09:21:52;;;;;;;0.30;0.30;;;;;;;;;;7395323;19;20141;-90
2023/03/26 09:24:23;;;;;;;0.60;0.60;;;;;;;;;;7394182;19;20510;-90
2023/03/26 09:27:04;;;;;;;0.30;0.30;;;;;;;;;;7392108;19;20208;-91
2023/03/26 09:30:09;;;;;;;0.40;0.40;;;;;;;;;;7392638;19;20163;-91
2023/03/26 09:33:39;;;;;;;0.30;0.30;;;;;;;;;;7393376;19;20155;-90
2023/03/26 09:36:37;;;;;;;0.50;0.50;;;;;;;;;;7393269;19;20148;-91
2023/03/26 09:39:21;;;;;;;0.30;0.30;;;;;;;;;;7392978;19;20552;-91
2023/03/26 09:42:17;;;;;;;0.60;0.60;;;;;;;;;;7393292;19;20593;-90
2023/03/26 09:44:59;;;;;;;0.30;0.30;;;;;;;;;;7393185;19;20617;-90
2023/03/26 09:47:52;;;;;;;0.20;0.20;;;;;;;;;;7388596;19;20183;-91
2023/03/26 09:50:36;;;;;;;0.50;0.50;;;;;;;;;;7386110;19;20172;-91
2023/03/26 09:53:40;;;;;;;0.30;0.30;;;;;;;;;;7389270;19;20141;-89
2023/03/26 09:56:27;;;;;;;0.93;0.93;;;;;;;;;;7391692;19;20451;-90
2023/03/26 09:59:23;;;;;;;0.70;0.70;;;;;;;;;;7392444;19;20153;-89
2023/03/26 10:02:16;;;;;;;0.20;0.20;;;;;;;;;;7398918;19;20169;-90
2023/03/26 10:04:51;;;;;;;0.40;0.40;;;;;;;;;;7400360;19;20143;-89
2023/03/26 10:07:29;;;;;;;0.73;0.60;;;;;;;;;;7402090;19;20145;-90
2023/03/26 10:10:21;;;;;;;0.30;0.30;;;;;;;;;;7399983;19;20176;-91
2023/03/26 10:13:04;;;;;;;0.30;0.30;;;;;;;;;;7402156;19;20137;-90
2023/03/26 10:16:19;;;;;;;0.30;0.30;;;;;;;;;;7399612;19;20200;-93
2023/03/26 10:18:59;;;;;;;0.20;0.20;;;;;;;;;;7395297;19;20168;-91
2023/03/26 10:21:41;;;;;;;0.30;0.30;;;;;;;;;;7397458;19;20519;-93
2023/03/26 10:24:21;;;;;;;0.33;0.33;;;;;;;;;;7397001;19;20156;-92
2023/03/26 10:27:20;;;;;;;0.30;0.30;;;;;;;;;;7398819;19;20707;-92
2023/03/26 10:30:44;;;;;;;0.23;0.23;;;;;;;;;;7397609;19;20609;-92
2023/03/26 10:33:41;;;;;;;0.40;0.40;;;;;;;;;;7394923;19;20149;-92
2023/03/26 10:36:19;;;;;;;0.40;0.40;;;;;;;;;;7399302;19;20157;-93
2023/03/26 10:38:57;;;;;;;0.30;0.30;;;;;;;;;;7398377;19;20655;-92
2023/03/26 10:41:55;;;;;;;0.40;0.40;;;;;;;;;;7394499;19;20148;-93
2023/03/26 10:44:59;;;;;;;0.20;0.20;;;;;;;;;;7397774;19;20214;-93
2023/03/26 10:47:53;;;;;;;0.50;0.50;;;;;;;;;;7399432;19;20520;-93
2023/03/26 10:50:25;;;;;;;0.40;0.40;;;;;;;;;;7398445;19;20168;-93
2023/03/26 10:53:03;;;;;;;0.30;0.30;;;;;;;;;;7405814;19;20486;-93
2023/03/26 10:55:46;;;;;;;0.30;0.30;;;;;;;;;;7402177;19;20141;-93
2023/03/26 10:58:20;;;;;;;0.30;0.30;;;;;;;;;;7401493;19;20179;-95
2023/03/26 11:00:55;;;;;;;0.30;0.30;;;;;;;;;;7396756;19;20221;-89
2023/03/26 11:03:31;;;;;;;1.13;0.70;;;;;;;;;;7392759;19;20204;-91
2023/03/26 11:06:22;;;;;;;0.30;0.30;;;;;;;;;;7395040;19;20132;-93
2023/03/26 11:09:07;;;;;;;0.23;0.23;;;;;;;;;;7394779;19;20633;-92
2023/03/26 11:11:41;;;;;;;2.10;0.40;;;;;;;;;;7393539;19;20141;-92
2023/03/26 11:14:12;;;;;;;0.53;0.37;;;;;;;;;;7394732;19;20140;-91
2023/03/26 11:17:03;;;;;;;0.30;0.30;;;;;;;;;;7392353;19;20141;-92
2023/03/26 11:19:40;;;;;;;1.17;0.60;;;;;;;;;;7391393;19;20191;-92
2023/03/26 11:22:26;;;;;;;0.30;0.30;;;;;;;;;;7394958;19;20132;-91
2023/03/26 11:25:00;;;;;;;0.30;0.30;;;;;;;;;;7383437;19;20132;-91
2023/03/26 11:27:39;;;;;;;0.43;0.43;;;;;;;;;;7390745;19;20140;-91
2023/03/26 11:30:21;;;;;;;0.57;0.57;;;;;;;;;;7391105;19;20197;-91
2023/03/26 11:32:52;;;;;;;0.30;0.30;;;;;;;;;;7392530;19;20144;-91
2023/03/26 11:35:20;;;;;;;0.20;0.20;;;;;;;;;;7392418;19;20158;-91
2023/03/26 11:38:14;;;;;;;0.30;0.30;;;;;;;;;;7395137;19;20128;-91
2023/03/26 11:40:44;;;;;;;0.30;0.30;;;;;;;;;;7395601;19;20140;-89
2023/03/26 11:43:12;;;;;;;0.70;0.67;;;;;;;;;;7394514;19;20161;-91
2023/03/26 11:45:42;;;;;;;0.40;0.40;;;;;;;;;;7389588;19;20627;-91
2023/03/26 11:48:13;;;;;;;0.30;0.30;;;;;;;;;;7390187;19;20174;-90
2023/03/26 11:50:43;;;;;;;0.30;0.30;;;;;;;;;;7398227;19;20129;-91
2023/03/26 11:53:13;;;;;;;0.40;0.40;;;;;;;;;;7394139;19;20129;-92
2023/03/26 11:55:54;;;;;;;0.40;0.40;;;;;;;;;;7392706;19;20165;-89
2023/03/26 11:58:26;;;;;;;0.77;0.77;;;;;;;;;;7396646;19;20141;-89
2023/03/26 12:00:53;;;;;;;0.30;0.30;;;;;;;;;;7396690;19;20133;-88
2023/03/26 12:03:20;;;;;;;0.33;0.33;;;;;;;;;;7396866;19;20140;-88
2023/03/26 12:05:52;;;;;;;0.30;0.30;;;;;;;;;;7397453;19;20133;-88
2023/03/26 12:08:33;;;;;;;0.40;0.40;;;;;;;;;;7400727;19;20149;-85
2023/03/26 12:11:05;;;;;;;0.30;0.30;;;;;;;;;;7404562;19;20133;-89
2023/03/26 12:13:50;;;;;;;0.63;0.60;;;;;;;;;;7399348;19;20166;-92
2023/03/26 12:16:19;;;;;;;0.30;0.30;;;;;;;;;;7395832;19;20165;-90
2023/03/26 12:19:00;;;;;;;0.53;0.53;;;;;;;;;;7396442;19;20153;-90
2023/03/26 12:21:27;;;;;;;0.40;0.40;;;;;;;;;;7387663;19;20136;-89
2023/03/26 12:24:04;;;;;;;0.40;0.40;;;;;;;;;;7389550;19;20161;-90
2023/03/26 12:26:40;;;;;;;0.43;0.43;;;;;;;;;;7385060;19;20653;-89
2023/03/26 12:29:17;;;;;;;0.20;0.20;;;;;;;;;;7383224;19;20178;-91
2023/03/26 12:31:54;;;;;;;0.30;0.30;;;;;;;;;;7388076;19;20140;-91
2023/03/26 12:34:28;;;;;;;0.30;0.30;;;;;;;;;;7399124;19;20152;-94
2023/03/26 12:36:58;;;;;;;0.40;0.40;;;;;;;;;;7397150;19;20144;-93
2023/03/26 12:39:41;;;;;;;0.20;0.20;;;;;;;;;;7392276;19;20164;-94
2023/03/26 12:42:30;;;;;;;0.30;0.30;;;;;;;;;;7396745;19;20653;-92
2023/03/26 12:45:21;;;;;;;0.20;0.20;;;;;;;;;;7395997;19;20141;-93
2023/03/26 12:47:49;;;;;;;0.30;0.30;;;;;;;;;;7388276;19;20155;-92
2023/03/26 12:50:39;;;;;;;0.50;0.50;;;;;;;;;;7388962;19;20156;-92
2023/03/26 12:53:30;;;;;;;0.40;0.40;;;;;;;;;;7393887;19;20842;-90
2023/03/26 12:56:06;;;;;;;0.30;0.30;;;;;;;;;;7396430;19;20137;-86
2023/03/26 12:59:08;;;;;;;0.30;0.30;;;;;;;;;;7399352;19;20196;-85
2023/03/26 13:02:07;;;;;;;0.30;0.30;;;;;;;;;;7394455;19;20182;-90
2023/03/26 13:04:44;;;;;;;0.65;0.65;;;;;;;;;;7389052;19;20149;-90
2023/03/26 13:07:59;;;;;;;0.50;0.50;;;;;;;;;;7391918;19;20149;-88
2023/03/26 13:10:34;;;;;;;0.70;0.70;;;;;;;;;;7395360;19;20152;-89
2023/03/26 13:13:36;;;;;;;0.30;0.30;;;;;;;;;;7403733;19;20597;-89
2023/03/26 13:16:20;;;;;;;0.35;0.35;;;;;;;;;;7398337;19;20157;-91
2023/03/26 13:19:09;;;;;;;0.30;0.30;;;;;;;;;;7399553;19;20179;-93
2023/03/26 13:21:51;;;;;;;0.30;0.30;;;;;;;;;;7397661;19;20137;-88
2023/03/26 13:24:31;;;;;;;0.30;0.30;;;;;;;;;;7403710;19;20149;-89
2023/03/26 13:27:14;;;;;;;0.88;0.68;;;;;;;;;;7404368;19;20169;-88
2023/03/26 13:30:25;;;;;;;0.40;0.40;;;;;;;;;;7403489;19;20157;-91
2023/03/26 13:33:13;;;;;;;1.52;0.90;;;;;;;;;;7397646;19;20609;-89
2023/03/26 13:39:32;;;;;;;0.35;0.35;;;;;;;;;;7399610;19;20164;-90
2023/03/26 13:42:25;;;;;;;0.43;0.43;;;;;;;;;;7403187;19;20172;-91
2023/03/26 13:45:19;;;;;;;0.55;0.55;;;;;;;;;;7409273;19;20178;-91
2023/03/26 13:47:58;;;;;;;0.30;0.30;;;;;;;;;;7419795;19;20160;-91
2023/03/26 13:50:45;;;;;;;0.40;0.40;;;;;;;;;;7414441;19;20165;-90
2023/03/26 13:54:20;;;;;;;0.30;0.30;;;;;;;;;;7410957;19;20144;-90
2023/03/26 14:00:31;;;;;;;0.20;0.20;;;;;;;;;;7397330;19;20168;-90
2023/03/26 14:03:12;;;;;;;0.60;0.60;;;;;;;;;;7399157;19;20137;-90
2023/03/26 14:05:45;;;;;;;0.30;0.30;;;;;;;;;;7397321;19;20145;-90
2023/03/26 14:08:28;;;;;;;0.30;0.30;;;;;;;;;;7394446;19;20148;-92
2023/03/26 14:11:15;;;;;;;0.20;0.20;;;;;;;;;;7396506;19;20148;-93
2023/03/26 14:14:16;;;;;;;0.30;0.30;;;;;;;;;;7395140;19;20148;-93
2023/03/26 14:16:47;;;;;;;0.30;0.30;;;;;;;;;;7410448;19;20141;-96
2023/03/26 14:19:53;;;;;;;0.30;0.30;;;;;;;;;;7419153;19;20216;-94
2023/03/26 14:22:29;;;;;;;0.30;0.30;;;;;;;;;;7419598;19;20162;-95
2023/03/26 14:25:00;;;;;;;0.20;0.20;;;;;;;;;;7404233;19;20136;-95
2023/03/26 14:27:37;;;;;;;0.30;0.30;;;;;;;;;;7403099;19;20161;-94
2023/03/26 14:30:13;;;;;;;0.50;0.50;;;;;;;;;;7406810;19;20192;-94
2023/03/26 14:33:06;;;;;;;0.30;0.30;;;;;;;;;;7419801;19;20137;-95
2023/03/26 14:35:39;;;;;;;0.30;0.30;;;;;;;;;;7423213;19;20129;-96
2023/03/26 14:38:46;;;;;;;0.30;0.30;;;;;;;;;;7421485;19;20137;-96
2023/03/26 14:41:40;;;;;;;0.20;0.20;;;;;;;;;;7422728;19;20126;-96
2023/03/26 18:01:25;;;;;;;0.30;0.30;;;;;;;;;;7351728;19;20586;-92
2023/03/26 18:03:55;;;;;;;0.30;0.30;;;;;;;;;;7393652;19;20170;-92
2023/03/26 18:06:28;;;;;;;0.30;0.30;;;;;;;;;;7392062;19;20652;-91
2023/03/26 18:09:37;;;;;;;0.20;0.20;;;;;;;;;;7410219;19;20169;-94
